RYR54CK EPMO-LPPR
Flight info
| Callsign | RYR54CK |
|---|---|
| Flight time | N/A |
| Altitude | 36000 |
| Route | EVINA N744 TUSIN DCT MIKOV DCT MALUG/N0438F370 DCT RONOP/N0435F380 DCT GIGUS DCT BALSI DCT GIPNO DCT RUSIT/N0415F310 DCT ESIDA DCT LERGA/N0434F370 DCT MINSO/N0436F390 DCT NARAK DCT AGN DCT PIPOR L866 PPN N976 ZMR L155 ADORO DCT INKIT |
| Aircraft | B738/M-SDE3FGILRWY/SB1 |
Departure
| Time | 2026-04-25 12:58 |
|---|---|
| Airport | Warsaw Modlin Airport (EPMO) |
Arrival
| Time | N/A |
|---|---|
| Airport | Francisco de Sá Carneiro Airport (LPPR) |
| Time | Latitude | Longitude | Altitude | Speed | Heading |
|---|---|---|---|---|---|
| 2026-04-25 12:40 | 52.44721 | 20.65018 | 337 ft | 0 kts | 206° |
| 2026-04-25 12:49 | 52.44734 | 20.65029 | 335 ft | 4 kts | 219° |
| 2026-04-25 12:49 | 52.44748 | 20.65046 | 337 ft | 2 kts | 171° |
| 2026-04-25 12:50 | 52.44768 | 20.65037 | 337 ft | 4 kts | 111° |
| 2026-04-25 12:50 | 52.44767 | 20.65003 | 337 ft | 3 kts | 81° |
| 2026-04-25 12:50 | 52.44767 | 20.64998 | 334 ft | 0 kts | 81° |
| 2026-04-25 12:53 | 52.44769 | 20.65022 | 337 ft | 7 kts | 81° |
| 2026-04-25 12:53 | 52.44783 | 20.65165 | 333 ft | 16 kts | 81° |
| 2026-04-25 12:53 | 52.44800 | 20.65349 | 337 ft | 16 kts | 81° |
| 2026-04-25 12:53 | 52.44816 | 20.65525 | 334 ft | 16 kts | 81° |
| 2026-04-25 12:54 | 52.44831 | 20.65697 | 335 ft | 15 kts | 83° |
| 2026-04-25 12:54 | 52.44846 | 20.65861 | 336 ft | 14 kts | 81° |
| 2026-04-25 12:54 | 52.44861 | 20.66024 | 337 ft | 16 kts | 81° |
| 2026-04-25 12:54 | 52.44882 | 20.66244 | 337 ft | 23 kts | 81° |
| 2026-04-25 12:55 | 52.44899 | 20.66426 | 333 ft | 24 kts | 81° |
| 2026-04-25 12:55 | 52.44916 | 20.66605 | 334 ft | 23 kts | 81° |
| 2026-04-25 12:55 | 52.44947 | 20.66932 | 335 ft | 19 kts | 81° |
| 2026-04-25 12:55 | 52.44979 | 20.67072 | 335 ft | 11 kts | 34° |
| 2026-04-25 12:56 | 52.45055 | 20.67067 | 334 ft | 11 kts | 349° |
| 2026-04-25 12:56 | 52.45129 | 20.67049 | 335 ft | 11 kts | 351° |
| 2026-04-25 12:56 | 52.45202 | 20.67026 | 336 ft | 10 kts | 346° |
| 2026-04-25 12:56 | 52.45268 | 20.66982 | 338 ft | 10 kts | 329° |
| 2026-04-25 12:57 | 52.45282 | 20.66881 | 334 ft | 10 kts | 258° |
| 2026-04-25 12:57 | 52.45255 | 20.66600 | 335 ft | 55 kts | 261° |
| 2026-04-25 12:57 | 52.45161 | 20.65606 | 338 ft | 119 kts | 261° |
| 2026-04-25 12:57 | 52.45016 | 20.63971 | 411 ft | 164 kts | 262° |
| 2026-04-25 12:58 | 52.44841 | 20.62190 | 1197 ft | 153 kts | 261° |
| 2026-04-25 12:58 | 52.44659 | 20.60455 | 1883 ft | 160 kts | 260° |
| 2026-04-25 12:58 | 52.44452 | 20.58561 | 2363 ft | 177 kts | 260° |
| 2026-04-25 12:58 | 52.44228 | 20.56490 | 2876 ft | 191 kts | 265° |
| 2026-04-25 12:59 | 52.44480 | 20.54314 | 3283 ft | 206 kts | 299° |
| 2026-04-25 12:59 | 52.45574 | 20.52638 | 3632 ft | 231 kts | 331° |
| 2026-04-25 12:59 | 52.47229 | 20.52008 | 3974 ft | 256 kts | 353° |
| 2026-04-25 12:59 | 52.49041 | 20.51919 | 4640 ft | 265 kts | 356° |
| 2026-04-25 13:00 | 52.50905 | 20.51869 | 5382 ft | 269 kts | 355° |
| 2026-04-25 13:00 | 52.52147 | 20.51806 | 5903 ft | 270 kts | 355° |
| 2026-04-25 13:00 | 52.54649 | 20.51624 | 6924 ft | 273 kts | 354° |
| 2026-04-25 13:00 | 52.56559 | 20.51461 | 7660 ft | 276 kts | 354° |
| 2026-04-25 13:01 | 52.58488 | 20.51721 | 8362 ft | 285 kts | 16° |
| 2026-04-25 13:01 | 52.60171 | 20.53477 | 9071 ft | 295 kts | 45° |
| 2026-04-25 13:01 | 52.61168 | 20.56449 | 9766 ft | 303 kts | 75° |
| 2026-04-25 13:01 | 52.61537 | 20.59912 | 10266 ft | 316 kts | 81° |
| 2026-04-25 13:02 | 52.61841 | 20.63644 | 10442 ft | 340 kts | 81° |
| 2026-04-25 13:02 | 52.62170 | 20.67589 | 10807 ft | 354 kts | 81° |
| 2026-04-25 13:02 | 52.62524 | 20.71635 | 11409 ft | 360 kts | 80° |
| 2026-04-25 13:02 | 52.62877 | 20.75726 | 12120 ft | 363 kts | 82° |
| 2026-04-25 13:03 | 52.63084 | 20.79887 | 12814 ft | 367 kts | 85° |
| 2026-04-25 13:03 | 52.63219 | 20.84103 | 13485 ft | 371 kts | 87° |
| 2026-04-25 13:03 | 52.62839 | 20.88350 | 13985 ft | 382 kts | 112° |
| 2026-04-25 13:03 | 52.61381 | 20.91986 | 14612 ft | 384 kts | 138° |
| 2026-04-25 13:04 | 52.59173 | 20.94411 | 15333 ft | 381 kts | 159° |
| 2026-04-25 13:04 | 52.56667 | 20.95565 | 15984 ft | 379 kts | 176° |
| 2026-04-25 13:04 | 52.54043 | 20.95467 | 16587 ft | 377 kts | 195° |
| 2026-04-25 13:04 | 52.51526 | 20.94292 | 17252 ft | 377 kts | 201° |
| 2026-04-25 13:05 | 52.49014 | 20.92950 | 17868 ft | 381 kts | 202° |
| 2026-04-25 13:05 | 52.46486 | 20.91561 | 18446 ft | 385 kts | 202° |
| 2026-04-25 13:05 | 52.43940 | 20.90162 | 19042 ft | 388 kts | 202° |
| 2026-04-25 13:05 | 52.41388 | 20.88776 | 19630 ft | 391 kts | 201° |
| 2026-04-25 13:06 | 52.38789 | 20.87382 | 20204 ft | 394 kts | 201° |
| 2026-04-25 13:06 | 52.36169 | 20.85989 | 20758 ft | 398 kts | 201° |
| 2026-04-25 13:06 | 52.33527 | 20.84595 | 21283 ft | 401 kts | 201° |
| 2026-04-25 13:06 | 52.30866 | 20.83196 | 21803 ft | 404 kts | 201° |
| 2026-04-25 13:07 | 52.28180 | 20.81790 | 22313 ft | 407 kts | 201° |
| 2026-04-25 13:07 | 52.25474 | 20.80375 | 22797 ft | 410 kts | 201° |
| 2026-04-25 13:07 | 52.22747 | 20.78952 | 23256 ft | 413 kts | 201° |
| 2026-04-25 13:07 | 52.19995 | 20.77517 | 23729 ft | 416 kts | 201° |
| 2026-04-25 13:08 | 52.17229 | 20.76078 | 24189 ft | 418 kts | 201° |
| 2026-04-25 13:08 | 52.14454 | 20.74635 | 24634 ft | 421 kts | 201° |
| 2026-04-25 13:08 | 52.11654 | 20.73181 | 25071 ft | 424 kts | 201° |
| 2026-04-25 13:08 | 52.08837 | 20.71719 | 25497 ft | 426 kts | 201° |
| 2026-04-25 13:09 | 52.06002 | 20.70251 | 25891 ft | 429 kts | 201° |
| 2026-04-25 13:09 | 52.03143 | 20.68772 | 26280 ft | 431 kts | 201° |
| 2026-04-25 13:09 | 52.00276 | 20.67291 | 26662 ft | 434 kts | 200° |
| 2026-04-25 13:09 | 51.97392 | 20.65803 | 27027 ft | 436 kts | 200° |
| 2026-04-25 13:10 | 51.94523 | 20.64325 | 27368 ft | 439 kts | 200° |
| 2026-04-25 13:10 | 51.91606 | 20.62824 | 27719 ft | 441 kts | 200° |
| 2026-04-25 13:10 | 51.88676 | 20.61319 | 28074 ft | 443 kts | 200° |
| 2026-04-25 13:10 | 51.85732 | 20.59808 | 28402 ft | 445 kts | 200° |
| 2026-04-25 13:11 | 51.82774 | 20.58293 | 28713 ft | 447 kts | 200° |
| 2026-04-25 13:11 | 51.79794 | 20.56768 | 29018 ft | 449 kts | 200° |
| 2026-04-25 13:11 | 51.76806 | 20.55241 | 29336 ft | 451 kts | 200° |
| 2026-04-25 13:11 | 51.73811 | 20.53713 | 29689 ft | 451 kts | 200° |
| 2026-04-25 13:12 | 51.70820 | 20.52190 | 30116 ft | 450 kts | 200° |
| 2026-04-25 13:12 | 51.67850 | 20.50680 | 30552 ft | 448 kts | 200° |
| 2026-04-25 13:12 | 51.64877 | 20.49170 | 30940 ft | 446 kts | 201° |
| 2026-04-25 13:12 | 51.62920 | 20.48176 | 31179 ft | 446 kts | 201° |
| 2026-04-25 13:13 | 51.58963 | 20.46169 | 31628 ft | 446 kts | 201° |
| 2026-04-25 13:13 | 51.56007 | 20.44673 | 32001 ft | 444 kts | 201° |
| 2026-04-25 13:13 | 51.53061 | 20.43184 | 32368 ft | 443 kts | 201° |
| 2026-04-25 13:13 | 51.50121 | 20.41699 | 32692 ft | 443 kts | 201° |
| 2026-04-25 13:14 | 51.47184 | 20.40218 | 33023 ft | 442 kts | 201° |
| 2026-04-25 13:14 | 51.44248 | 20.38739 | 33347 ft | 441 kts | 201° |
| 2026-04-25 13:14 | 51.41360 | 20.37281 | 33642 ft | 440 kts | 202° |
| 2026-04-25 13:14 | 51.38553 | 20.35400 | 33952 ft | 435 kts | 211° |
| 2026-04-25 13:15 | 51.36006 | 20.32853 | 34262 ft | 429 kts | 220° |
| 2026-04-25 13:15 | 51.33636 | 20.29960 | 34545 ft | 428 kts | 221° |
| 2026-04-25 13:15 | 51.31270 | 20.27034 | 34771 ft | 429 kts | 221° |
| 2026-04-25 13:15 | 51.28901 | 20.24118 | 35003 ft | 430 kts | 221° |
| 2026-04-25 13:16 | 51.26524 | 20.21220 | 35278 ft | 429 kts | 220° |
| 2026-04-25 13:16 | 51.24145 | 20.18346 | 35552 ft | 428 kts | 220° |
| 2026-04-25 13:16 | 51.21759 | 20.15478 | 35789 ft | 429 kts | 220° |
| 2026-04-25 13:16 | 51.19368 | 20.12614 | 35861 ft | 432 kts | 220° |
| 2026-04-25 13:17 | 51.14572 | 20.06879 | 35879 ft | 434 kts | 220° |
| 2026-04-25 13:17 | 51.09760 | 20.01143 | 35866 ft | 428 kts | 220° |
| 2026-04-25 13:18 | 51.05000 | 19.95488 | 35880 ft | 426 kts | 220° |
| 2026-04-25 13:18 | 51.00251 | 19.89862 | 35884 ft | 425 kts | 220° |
| 2026-04-25 13:19 | 50.95503 | 19.84256 | 35882 ft | 425 kts | 220° |
| 2026-04-25 13:19 | 50.91556 | 19.79606 | 35865 ft | 425 kts | 220° |
| 2026-04-25 13:20 | 50.86008 | 19.73084 | 35891 ft | 425 kts | 220° |
| 2026-04-25 13:20 | 50.81258 | 19.67513 | 35901 ft | 425 kts | 220° |
| 2026-04-25 13:21 | 50.76493 | 19.61940 | 35899 ft | 426 kts | 220° |
| 2026-04-25 13:21 | 50.71714 | 19.56365 | 35901 ft | 427 kts | 220° |
| 2026-04-25 13:22 | 50.66957 | 19.50829 | 35909 ft | 427 kts | 220° |
| 2026-04-25 13:23 | 50.59762 | 19.42484 | 35908 ft | 429 kts | 220° |
| 2026-04-25 13:23 | 50.54951 | 19.36922 | 35907 ft | 429 kts | 220° |
| 2026-04-25 13:24 | 50.50131 | 19.31365 | 35909 ft | 430 kts | 220° |
| 2026-04-25 13:24 | 50.45309 | 19.25819 | 35917 ft | 429 kts | 220° |
| 2026-04-25 13:25 | 50.40486 | 19.20287 | 35915 ft | 429 kts | 220° |
| 2026-04-25 13:25 | 50.35664 | 19.14770 | 35916 ft | 429 kts | 220° |
| 2026-04-25 13:26 | 50.30846 | 19.09271 | 35917 ft | 428 kts | 220° |
| 2026-04-25 13:26 | 50.26029 | 19.03788 | 35916 ft | 428 kts | 220° |
| 2026-04-25 13:27 | 50.21218 | 18.98325 | 35919 ft | 427 kts | 220° |
| 2026-04-25 13:27 | 50.16411 | 18.92881 | 35911 ft | 427 kts | 220° |
| 2026-04-25 13:28 | 50.11605 | 18.87452 | 35917 ft | 426 kts | 220° |
| 2026-04-25 13:28 | 50.06797 | 18.82033 | 35916 ft | 426 kts | 220° |
| 2026-04-25 13:29 | 50.02023 | 18.76666 | 35926 ft | 425 kts | 219° |
| 2026-04-25 13:29 | 49.97229 | 18.71291 | 35924 ft | 425 kts | 220° |
| 2026-04-25 13:30 | 49.90036 | 18.63247 | 35928 ft | 425 kts | 219° |
| 2026-04-25 13:31 | 49.83198 | 18.54666 | 35927 ft | 418 kts | 234° |
| 2026-04-25 13:31 | 49.79553 | 18.47667 | 35934 ft | 417 kts | 234° |
| 2026-04-25 13:32 | 49.75917 | 18.40666 | 35935 ft | 417 kts | 234° |
| 2026-04-25 13:32 | 49.72250 | 18.33681 | 35934 ft | 418 kts | 234° |
| 2026-04-25 13:33 | 49.68587 | 18.26755 | 35936 ft | 419 kts | 234° |
| 2026-04-25 13:33 | 49.64892 | 18.19795 | 35934 ft | 419 kts | 234° |
| 2026-04-25 13:34 | 49.61184 | 18.12831 | 35934 ft | 420 kts | 234° |
| 2026-04-25 13:34 | 49.57468 | 18.05871 | 35936 ft | 420 kts | 234° |
| 2026-04-25 13:35 | 49.53750 | 17.98923 | 35944 ft | 420 kts | 234° |
| 2026-04-25 13:35 | 49.50051 | 17.92029 | 35946 ft | 420 kts | 233° |
| 2026-04-25 13:36 | 49.46324 | 17.85103 | 35944 ft | 420 kts | 233° |
| 2026-04-25 13:36 | 49.42593 | 17.78186 | 35944 ft | 420 kts | 233° |
| 2026-04-25 13:37 | 49.38862 | 17.71287 | 35959 ft | 420 kts | 233° |
| 2026-04-25 13:37 | 49.35125 | 17.64395 | 35952 ft | 420 kts | 233° |
| 2026-04-25 13:38 | 49.31377 | 17.57502 | 35961 ft | 420 kts | 233° |
| 2026-04-25 13:38 | 49.27633 | 17.50634 | 35966 ft | 420 kts | 233° |
| 2026-04-25 13:39 | 49.23886 | 17.43777 | 35960 ft | 420 kts | 233° |
| 2026-04-25 13:39 | 49.20138 | 17.36936 | 35964 ft | 419 kts | 233° |
| 2026-04-25 13:40 | 49.16403 | 17.30138 | 35960 ft | 419 kts | 233° |
| 2026-04-25 13:40 | 49.12641 | 17.23307 | 35963 ft | 419 kts | 233° |
| 2026-04-25 13:41 | 49.09518 | 17.17650 | 35969 ft | 419 kts | 233° |
| 2026-04-25 13:41 | 49.05761 | 17.10861 | 35966 ft | 419 kts | 233° |
| 2026-04-25 13:42 | 49.01990 | 17.04063 | 35967 ft | 419 kts | 232° |
| 2026-04-25 13:42 | 48.98218 | 16.97282 | 35972 ft | 419 kts | 232° |
| 2026-04-25 13:43 | 48.94438 | 16.90502 | 35972 ft | 420 kts | 232° |
| 2026-04-25 13:43 | 48.90653 | 16.83731 | 35972 ft | 420 kts | 232° |
| 2026-04-25 13:44 | 48.86891 | 16.77018 | 35970 ft | 420 kts | 232° |
| 2026-04-25 13:44 | 48.83096 | 16.70262 | 35970 ft | 420 kts | 232° |
| 2026-04-25 13:45 | 48.79297 | 16.63517 | 35973 ft | 420 kts | 232° |
| 2026-04-25 13:45 | 48.75718 | 16.56539 | 35984 ft | 418 kts | 236° |
| 2026-04-25 13:46 | 48.72335 | 16.49431 | 35982 ft | 418 kts | 237° |
| 2026-04-25 13:46 | 48.68932 | 16.42283 | 35982 ft | 419 kts | 237° |
| 2026-04-25 13:47 | 48.65504 | 16.35155 | 35985 ft | 419 kts | 236° |
| 2026-04-25 13:47 | 48.62058 | 16.28040 | 35984 ft | 419 kts | 236° |
| 2026-04-25 13:48 | 48.58605 | 16.20938 | 35983 ft | 419 kts | 236° |
| 2026-04-25 13:48 | 48.55149 | 16.13849 | 35995 ft | 419 kts | 236° |
| 2026-04-25 13:49 | 48.51683 | 16.06758 | 35987 ft | 419 kts | 236° |
| 2026-04-25 13:49 | 48.48215 | 15.99680 | 35992 ft | 419 kts | 236° |
| 2026-04-25 13:50 | 48.44743 | 15.92612 | 35990 ft | 420 kts | 236° |
| 2026-04-25 13:50 | 48.41287 | 15.85598 | 35992 ft | 420 kts | 236° |
| 2026-04-25 13:51 | 48.37805 | 15.78547 | 35992 ft | 420 kts | 236° |
| 2026-04-25 13:51 | 48.34319 | 15.71507 | 35991 ft | 420 kts | 236° |
| 2026-04-25 13:52 | 48.30826 | 15.64471 | 35991 ft | 419 kts | 236° |
| 2026-04-25 13:52 | 48.27333 | 15.57453 | 35993 ft | 420 kts | 235° |
| 2026-04-25 13:53 | 48.23830 | 15.50432 | 35984 ft | 420 kts | 235° |
| 2026-04-25 13:53 | 48.20327 | 15.43432 | 35992 ft | 419 kts | 235° |
| 2026-04-25 13:54 | 48.16822 | 15.36444 | 36001 ft | 419 kts | 235° |
| 2026-04-25 13:54 | 48.13333 | 15.29506 | 36011 ft | 419 kts | 235° |
| 2026-04-25 13:55 | 48.09821 | 15.22539 | 36024 ft | 419 kts | 235° |
| 2026-04-25 13:55 | 48.06305 | 15.15584 | 36021 ft | 419 kts | 235° |
| 2026-04-25 13:56 | 48.02779 | 15.08625 | 36022 ft | 419 kts | 235° |
| 2026-04-25 13:56 | 47.99252 | 15.01684 | 36025 ft | 419 kts | 235° |
| 2026-04-25 13:57 | 47.95726 | 14.94762 | 36033 ft | 419 kts | 234° |
| 2026-04-25 13:57 | 47.92189 | 14.87835 | 36024 ft | 420 kts | 234° |
| 2026-04-25 13:58 | 47.88641 | 14.80905 | 36021 ft | 420 kts | 234° |
| 2026-04-25 13:58 | 47.85114 | 14.74032 | 36019 ft | 420 kts | 234° |
| 2026-04-25 13:59 | 47.81569 | 14.67144 | 36019 ft | 419 kts | 234° |
| 2026-04-25 13:59 | 47.78016 | 14.60256 | 36034 ft | 420 kts | 234° |
| 2026-04-25 14:00 | 47.74449 | 14.53360 | 36032 ft | 420 kts | 234° |
| 2026-04-25 14:00 | 47.70877 | 14.46470 | 36028 ft | 421 kts | 234° |
| 2026-04-25 14:01 | 47.67292 | 14.39573 | 36032 ft | 421 kts | 234° |
| 2026-04-25 14:01 | 47.63704 | 14.32687 | 36027 ft | 422 kts | 234° |
| 2026-04-25 14:02 | 47.60112 | 14.25812 | 36032 ft | 421 kts | 234° |
| 2026-04-25 14:02 | 47.56543 | 14.18997 | 36023 ft | 421 kts | 234° |
| 2026-04-25 14:03 | 47.52948 | 14.12149 | 36017 ft | 421 kts | 234° |
| 2026-04-25 14:03 | 47.49347 | 14.05309 | 36020 ft | 420 kts | 234° |
| 2026-04-25 14:04 | 47.45746 | 13.98484 | 36021 ft | 421 kts | 234° |
| 2026-04-25 14:04 | 47.42142 | 13.91671 | 36027 ft | 420 kts | 234° |
| 2026-04-25 14:05 | 47.38541 | 13.84882 | 36024 ft | 420 kts | 233° |
| 2026-04-25 14:05 | 47.34957 | 13.78139 | 36031 ft | 420 kts | 233° |
| 2026-04-25 14:06 | 47.31343 | 13.71359 | 36019 ft | 421 kts | 233° |
| 2026-04-25 14:06 | 47.27725 | 13.64585 | 36023 ft | 421 kts | 233° |
| 2026-04-25 14:07 | 47.24099 | 13.57815 | 36016 ft | 420 kts | 233° |
| 2026-04-25 14:07 | 47.20475 | 13.51066 | 36015 ft | 420 kts | 233° |
| 2026-04-25 14:08 | 47.16850 | 13.44331 | 36017 ft | 420 kts | 233° |
| 2026-04-25 14:08 | 47.13221 | 13.37605 | 36021 ft | 419 kts | 233° |
| 2026-04-25 14:09 | 47.09617 | 13.30940 | 36018 ft | 420 kts | 233° |
| 2026-04-25 14:09 | 47.05981 | 13.24234 | 36025 ft | 420 kts | 233° |
| 2026-04-25 14:10 | 47.02337 | 13.17527 | 36035 ft | 420 kts | 233° |
| 2026-04-25 14:10 | 46.98688 | 13.10830 | 36035 ft | 420 kts | 233° |
| 2026-04-25 14:11 | 46.95033 | 13.04137 | 36036 ft | 421 kts | 233° |
| 2026-04-25 14:11 | 46.91370 | 12.97446 | 36060 ft | 421 kts | 232° |
| 2026-04-25 14:12 | 46.87697 | 12.90753 | 36065 ft | 422 kts | 232° |
| 2026-04-25 14:12 | 46.84018 | 12.84065 | 36058 ft | 422 kts | 232° |
| 2026-04-25 14:13 | 46.80358 | 12.77425 | 36034 ft | 423 kts | 232° |
| 2026-04-25 14:13 | 46.76654 | 12.70722 | 36089 ft | 427 kts | 232° |
| 2026-04-25 14:13 | 46.74785 | 12.67345 | 36315 ft | 427 kts | 232° |
| 2026-04-25 14:14 | 46.72922 | 12.63985 | 36631 ft | 425 kts | 232° |
| 2026-04-25 14:14 | 46.71164 | 12.60539 | 36897 ft | 423 kts | 239° |
| 2026-04-25 14:14 | 46.69773 | 12.56784 | 37049 ft | 423 kts | 248° |
| 2026-04-25 14:15 | 46.67740 | 12.48723 | 37052 ft | 424 kts | 251° |
| 2026-04-25 14:15 | 46.65786 | 12.40693 | 37046 ft | 416 kts | 251° |
| 2026-04-25 14:16 | 46.63835 | 12.32804 | 37049 ft | 413 kts | 250° |
| 2026-04-25 14:16 | 46.61886 | 12.25031 | 37056 ft | 411 kts | 250° |
| 2026-04-25 14:17 | 46.59917 | 12.17231 | 37051 ft | 410 kts | 250° |
| 2026-04-25 14:17 | 46.57947 | 12.09459 | 37058 ft | 410 kts | 250° |
| 2026-04-25 14:18 | 46.55968 | 12.01682 | 37055 ft | 410 kts | 250° |
| 2026-04-25 14:18 | 46.53981 | 11.93902 | 37063 ft | 411 kts | 250° |
| 2026-04-25 14:19 | 46.52000 | 11.86165 | 37078 ft | 411 kts | 250° |
| 2026-04-25 14:19 | 46.49998 | 11.78374 | 37098 ft | 413 kts | 250° |
| 2026-04-25 14:20 | 46.47981 | 11.70553 | 37084 ft | 414 kts | 250° |
| 2026-04-25 14:20 | 46.45951 | 11.62708 | 37082 ft | 416 kts | 250° |
| 2026-04-25 14:21 | 46.43910 | 11.54844 | 37070 ft | 418 kts | 250° |
| 2026-04-25 14:21 | 46.41855 | 11.46958 | 37051 ft | 419 kts | 250° |
| 2026-04-25 14:22 | 46.39790 | 11.39058 | 37022 ft | 419 kts | 250° |
| 2026-04-25 14:22 | 46.37722 | 11.31172 | 37010 ft | 419 kts | 250° |
| 2026-04-25 14:23 | 46.35652 | 11.23304 | 36987 ft | 418 kts | 249° |
| 2026-04-25 14:23 | 46.33584 | 11.15473 | 36992 ft | 416 kts | 249° |
| 2026-04-25 14:24 | 46.31530 | 11.07719 | 37008 ft | 414 kts | 249° |
| 2026-04-25 14:24 | 46.29467 | 10.99958 | 37025 ft | 412 kts | 249° |
| 2026-04-25 14:25 | 46.27405 | 10.92228 | 37045 ft | 411 kts | 249° |
| 2026-04-25 14:25 | 46.25348 | 10.84540 | 37058 ft | 410 kts | 249° |
| 2026-04-25 14:26 | 46.23300 | 10.76899 | 37079 ft | 410 kts | 249° |
| 2026-04-25 14:26 | 46.21229 | 10.69216 | 37102 ft | 411 kts | 249° |
| 2026-04-25 14:27 | 46.19148 | 10.61520 | 37109 ft | 413 kts | 249° |
| 2026-04-25 14:27 | 46.17052 | 10.53787 | 37104 ft | 415 kts | 249° |
| 2026-04-25 14:28 | 46.14942 | 10.46022 | 37096 ft | 417 kts | 249° |
| 2026-04-25 14:28 | 46.12815 | 10.38223 | 37103 ft | 419 kts | 249° |
| 2026-04-25 14:29 | 46.10675 | 10.30412 | 37090 ft | 419 kts | 249° |
| 2026-04-25 14:29 | 46.08891 | 10.23903 | 37100 ft | 419 kts | 249° |
| 2026-04-25 14:30 | 46.07103 | 10.17408 | 37075 ft | 420 kts | 248° |
| 2026-04-25 14:30 | 46.03499 | 10.04363 | 37054 ft | 419 kts | 248° |
| 2026-04-25 14:31 | 46.01352 | 9.96631 | 37046 ft | 419 kts | 248° |
| 2026-04-25 14:31 | 45.99188 | 9.88866 | 37042 ft | 417 kts | 248° |
| 2026-04-25 14:32 | 45.97034 | 9.81153 | 37036 ft | 415 kts | 248° |
| 2026-04-25 14:32 | 45.94875 | 9.73452 | 37032 ft | 414 kts | 248° |
| 2026-04-25 14:33 | 45.92722 | 9.65780 | 37021 ft | 413 kts | 248° |
| 2026-04-25 14:33 | 45.90568 | 9.58139 | 37034 ft | 412 kts | 248° |
| 2026-04-25 14:34 | 45.88412 | 9.50523 | 37013 ft | 412 kts | 248° |
| 2026-04-25 14:34 | 45.86249 | 9.42905 | 37030 ft | 412 kts | 248° |
| 2026-04-25 14:35 | 45.84073 | 9.35279 | 37008 ft | 414 kts | 248° |
| 2026-04-25 14:35 | 45.81890 | 9.27630 | 37015 ft | 415 kts | 248° |
| 2026-04-25 14:36 | 45.79708 | 9.20006 | 37008 ft | 416 kts | 248° |
| 2026-04-25 14:36 | 45.77501 | 9.12329 | 37008 ft | 417 kts | 248° |
| 2026-04-25 14:37 | 45.75283 | 9.04633 | 37009 ft | 418 kts | 248° |
| 2026-04-25 14:37 | 45.73051 | 8.96929 | 37014 ft | 419 kts | 248° |
| 2026-04-25 14:38 | 45.70817 | 8.89217 | 37011 ft | 420 kts | 248° |
| 2026-04-25 14:38 | 45.68587 | 8.81547 | 37010 ft | 420 kts | 248° |
| 2026-04-25 14:39 | 45.66339 | 8.73844 | 37019 ft | 419 kts | 248° |
| 2026-04-25 14:39 | 45.64091 | 8.66154 | 37015 ft | 419 kts | 248° |
| 2026-04-25 14:40 | 45.61836 | 8.58482 | 37016 ft | 418 kts | 248° |
| 2026-04-25 14:40 | 45.59581 | 8.50828 | 37019 ft | 418 kts | 248° |
| 2026-04-25 14:41 | 45.57323 | 8.43193 | 37020 ft | 417 kts | 248° |
| 2026-04-25 14:41 | 45.55064 | 8.35571 | 37018 ft | 417 kts | 248° |
| 2026-04-25 14:42 | 45.53180 | 8.29230 | 37017 ft | 417 kts | 248° |
| 2026-04-25 14:42 | 45.50547 | 8.20395 | 37019 ft | 416 kts | 248° |
| 2026-04-25 14:43 | 45.48275 | 8.12802 | 37016 ft | 416 kts | 248° |
| 2026-04-25 14:43 | 45.46000 | 8.05220 | 37021 ft | 416 kts | 248° |
| 2026-04-25 14:44 | 45.43723 | 7.97649 | 37019 ft | 416 kts | 248° |
| 2026-04-25 14:44 | 45.41438 | 7.90082 | 37017 ft | 415 kts | 247° |
| 2026-04-25 14:45 | 45.39155 | 7.82538 | 37015 ft | 415 kts | 247° |
| 2026-04-25 14:45 | 45.36864 | 7.74989 | 37028 ft | 416 kts | 247° |
| 2026-04-25 14:46 | 45.34587 | 7.67505 | 37010 ft | 415 kts | 247° |
| 2026-04-25 14:46 | 45.32287 | 7.59976 | 37029 ft | 416 kts | 247° |
| 2026-04-25 14:47 | 45.30370 | 7.53715 | 37022 ft | 417 kts | 247° |
| 2026-04-25 14:47 | 45.27653 | 7.44868 | 37022 ft | 418 kts | 247° |
| 2026-04-25 14:48 | 45.25333 | 7.37341 | 37017 ft | 419 kts | 247° |
| 2026-04-25 14:48 | 45.22989 | 7.29749 | 37016 ft | 420 kts | 247° |
| 2026-04-25 14:49 | 45.20633 | 7.22151 | 37022 ft | 421 kts | 246° |
| 2026-04-25 14:49 | 45.19675 | 7.18232 | 37008 ft | 420 kts | 261° |
| 2026-04-25 14:49 | 45.19523 | 7.14116 | 37039 ft | 419 kts | 275° |
| 2026-04-25 14:50 | 45.20077 | 7.10057 | 37022 ft | 420 kts | 289° |
| 2026-04-25 14:50 | 45.21150 | 7.06202 | 37045 ft | 420 kts | 292° |
| 2026-04-25 14:50 | 45.23425 | 6.98619 | 37022 ft | 422 kts | 292° |
| 2026-04-25 14:51 | 45.25697 | 6.90938 | 37021 ft | 423 kts | 292° |
| 2026-04-25 14:51 | 45.27930 | 6.83202 | 37021 ft | 423 kts | 291° |
| 2026-04-25 14:52 | 45.30140 | 6.75468 | 37021 ft | 422 kts | 291° |
| 2026-04-25 14:52 | 45.31970 | 6.69037 | 37032 ft | 422 kts | 291° |
| 2026-04-25 14:53 | 45.34516 | 6.60067 | 37018 ft | 421 kts | 291° |
| 2026-04-25 14:53 | 45.36696 | 6.52368 | 37032 ft | 420 kts | 291° |
| 2026-04-25 14:54 | 45.38866 | 6.44666 | 37034 ft | 419 kts | 290° |
| 2026-04-25 14:54 | 45.40485 | 6.36729 | 37041 ft | 417 kts | 284° |
| 2026-04-25 14:55 | 45.41866 | 6.28717 | 37049 ft | 416 kts | 284° |
| 2026-04-25 14:55 | 45.43274 | 6.20735 | 37041 ft | 415 kts | 284° |
| 2026-04-25 14:56 | 45.44709 | 6.12760 | 37044 ft | 415 kts | 284° |
| 2026-04-25 14:56 | 45.46137 | 6.04839 | 37048 ft | 416 kts | 284° |
| 2026-04-25 14:57 | 45.47567 | 5.96851 | 37058 ft | 416 kts | 284° |
| 2026-04-25 14:57 | 45.49069 | 5.88881 | 37054 ft | 416 kts | 285° |
| 2026-04-25 14:58 | 45.50626 | 5.80923 | 37054 ft | 417 kts | 285° |
| 2026-04-25 14:58 | 45.52174 | 5.72942 | 37054 ft | 418 kts | 285° |
| 2026-04-25 14:59 | 45.53697 | 5.64993 | 37054 ft | 419 kts | 285° |
| 2026-04-25 14:59 | 45.55225 | 5.56983 | 37059 ft | 419 kts | 285° |
| 2026-04-25 15:00 | 45.56720 | 5.48935 | 37066 ft | 419 kts | 284° |
| 2026-04-25 15:00 | 45.58096 | 5.40851 | 37063 ft | 420 kts | 283° |
| 2026-04-25 15:01 | 45.59461 | 5.32749 | 37077 ft | 419 kts | 283° |
| 2026-04-25 15:01 | 45.60833 | 5.24654 | 37078 ft | 420 kts | 283° |
| 2026-04-25 15:02 | 45.62201 | 5.16544 | 37077 ft | 421 kts | 283° |
| 2026-04-25 15:02 | 45.63571 | 5.08414 | 37076 ft | 420 kts | 283° |
| 2026-04-25 15:03 | 45.64938 | 5.00286 | 37073 ft | 420 kts | 283° |
| 2026-04-25 15:03 | 45.66108 | 4.92107 | 37058 ft | 420 kts | 271° |
| 2026-04-25 15:04 | 45.65899 | 4.87955 | 37091 ft | 419 kts | 259° |
| 2026-04-25 15:04 | 45.65099 | 4.84008 | 37066 ft | 420 kts | 246° |
| 2026-04-25 15:04 | 45.62455 | 4.76565 | 37079 ft | 420 kts | 243° |
| 2026-04-25 15:05 | 45.59755 | 4.69157 | 37083 ft | 420 kts | 243° |
| 2026-04-25 15:06 | 45.55760 | 4.57996 | 37092 ft | 421 kts | 244° |
| 2026-04-25 15:06 | 45.53105 | 4.50548 | 37080 ft | 421 kts | 244° |
| 2026-04-25 15:07 | 45.50439 | 4.43092 | 37096 ft | 421 kts | 243° |
| 2026-04-25 15:07 | 45.47770 | 4.35661 | 37107 ft | 422 kts | 243° |
| 2026-04-25 15:08 | 45.45102 | 4.28261 | 37105 ft | 423 kts | 243° |
| 2026-04-25 15:08 | 45.42411 | 4.20813 | 37104 ft | 423 kts | 243° |
| 2026-04-25 15:09 | 45.39717 | 4.13392 | 37100 ft | 422 kts | 243° |
| 2026-04-25 15:09 | 45.35667 | 4.02250 | 37102 ft | 422 kts | 243° |
| 2026-04-25 15:10 | 45.32964 | 3.94826 | 37110 ft | 422 kts | 243° |
| 2026-04-25 15:11 | 45.28905 | 3.83730 | 37110 ft | 422 kts | 243° |
| 2026-04-25 15:11 | 45.26190 | 3.76334 | 37116 ft | 422 kts | 243° |
| 2026-04-25 15:12 | 45.21373 | 3.65962 | 37119 ft | 422 kts | 235° |
| 2026-04-25 15:12 | 45.19084 | 3.61438 | 37124 ft | 421 kts | 235° |
| 2026-04-25 15:13 | 45.12879 | 3.49023 | 37132 ft | 421 kts | 236° |
| 2026-04-25 15:14 | 45.09515 | 3.42245 | 37123 ft | 420 kts | 235° |
| 2026-04-25 15:14 | 45.06143 | 3.35482 | 37122 ft | 420 kts | 235° |
| 2026-04-25 15:15 | 45.02784 | 3.28731 | 37124 ft | 420 kts | 235° |
| 2026-04-25 15:15 | 44.99421 | 3.21999 | 37120 ft | 419 kts | 235° |
| 2026-04-25 15:16 | 44.96052 | 3.15266 | 37123 ft | 420 kts | 235° |
| 2026-04-25 15:16 | 44.91008 | 3.05219 | 37134 ft | 420 kts | 235° |
| 2026-04-25 15:17 | 44.85920 | 2.95119 | 37133 ft | 421 kts | 235° |
| 2026-04-25 15:18 | 44.82595 | 2.88326 | 37127 ft | 421 kts | 237° |
| 2026-04-25 15:18 | 44.78384 | 2.79076 | 37131 ft | 422 kts | 238° |
| 2026-04-25 15:19 | 44.75746 | 2.73299 | 37130 ft | 422 kts | 238° |
| 2026-04-25 15:19 | 44.72002 | 2.65189 | 37129 ft | 423 kts | 237° |
| 2026-04-25 15:20 | 44.68790 | 2.58256 | 37128 ft | 422 kts | 237° |
| 2026-04-25 15:20 | 44.65598 | 2.51392 | 37123 ft | 422 kts | 237° |
| 2026-04-25 15:21 | 44.62389 | 2.44507 | 37125 ft | 421 kts | 237° |
| 2026-04-25 15:21 | 44.59177 | 2.37637 | 37129 ft | 420 kts | 237° |
| 2026-04-25 15:22 | 44.55971 | 2.30788 | 37133 ft | 419 kts | 237° |
| 2026-04-25 15:22 | 44.52761 | 2.23958 | 37126 ft | 419 kts | 237° |
| 2026-04-25 15:23 | 44.49547 | 2.17140 | 37129 ft | 418 kts | 237° |
| 2026-04-25 15:23 | 44.46341 | 2.10342 | 37128 ft | 418 kts | 237° |
| 2026-04-25 15:24 | 44.43156 | 2.03605 | 37127 ft | 418 kts | 237° |